Time;durP1;ratioP1;P1;durP2;ratioP2;P2;SDS_P1;SDS_P2;PMS_P1;PMS_P2;Temp;Humidity;BMP_temperature;BMP_pressure;BME280_temperature;BME280_humidity;BME280_pressure;Samples;Min_cycle;Max_cycle;Signal;HPM_P1;HPM_P2
2023/05/02 00:01:04;;;;;;;4.95;1.85;;;;;;;14.21;39.67;99859.91;7709908;32;39835;-80
2023/05/02 00:05:21;;;;;;;2.80;1.67;;;;;;;14.43;38.95;99864.81;7710582;32;39911;-80
2023/05/02 00:09:37;;;;;;;2.90;1.90;;;;;;;14.34;38.59;99866.59;7710404;32;37874;-79
2023/05/02 00:13:53;;;;;;;3.40;2.00;;;;;;;14.14;41.77;99873.97;7710264;32;37049;-79
2023/05/02 00:18:10;;;;;;;4.05;1.70;;;;;;;14.22;41.19;99864.28;7709186;32;39426;-80
2023/05/02 00:22:27;;;;;;;3.53;1.70;;;;;;;14.09;41.69;99863.91;7708808;32;41075;-80
2023/05/02 00:26:43;;;;;;;2.78;1.65;;;;;;;14.37;38.88;99866.81;7708732;32;37881;-79
2023/05/02 00:30:59;;;;;;;3.85;1.50;;;;;;;14.51;38.02;99861.41;7709992;32;36989;-79
2023/05/02 00:35:16;;;;;;;3.45;1.95;;;;;;;14.56;37.79;99864.09;7728234;32;40158;-80
2023/05/02 00:39:34;;;;;;;3.33;1.60;;;;;;;14.59;37.44;99857.22;7736516;32;39619;-80
2023/05/02 00:43:51;;;;;;;5.45;1.98;;;;;;;14.70;38.37;99857.91;7736475;32;37151;-80
2023/05/02 00:48:08;;;;;;;3.35;1.80;;;;;;;14.93;37.31;99853.41;7736301;32;37030;-79
2023/05/02 00:52:25;;;;;;;4.43;1.80;;;;;;;14.78;36.26;99865.44;7736169;32;39396;-80
2023/05/02 00:56:41;;;;;;;3.90;1.67;;;;;;;14.77;41.42;99858.34;7736042;32;40909;-79
2023/05/02 01:01:15;;;;;;;2.80;1.80;;;;;;;14.79;38.09;99861.59;7735920;32;38012;-80
2023/05/02 01:05:45;;;;;;;1.92;1.48;;;;;;;14.64;37.28;99863.47;7716542;32;37195;-79
2023/05/02 01:10:21;;;;;;;2.72;1.58;;;;;;;14.96;36.76;99856.37;7708331;32;40530;-80
2023/05/02 01:14:43;;;;;;;2.95;1.62;;;;;;;14.89;36.81;99855.13;7711543;32;40777;-79
2023/05/02 01:19:00;;;;;;;5.12;2.45;;;;;;;15.02;36.51;99860.69;7730620;32;37985;-79
2023/05/02 01:23:43;;;;;;;4.07;2.10;;;;;;;14.35;45.76;99862.72;7738051;32;37867;-81
2023/05/02 01:28:22;;;;;;;2.73;2.00;;;;;;;14.41;46.10;99861.56;7735167;32;39302;-79
2023/05/02 01:32:40;;;;;;;3.47;1.92;;;;;;;14.58;44.47;99856.41;7738230;32;39532;-79
2023/05/02 01:36:58;;;;;;;6.55;1.90;;;;;;;14.42;43.37;99846.75;7737999;32;38721;-80
2023/05/02 01:41:14;;;;;;;3.90;2.00;;;;;;;14.58;41.04;99847.34;7739060;32;36732;-80
2023/05/02 01:45:32;;;;;;;5.85;2.10;;;;;;;14.51;43.67;99849.66;7737955;32;39428;-80
2023/05/02 01:49:49;;;;;;;6.95;2.62;;;;;;;14.42;44.22;99850.31;7715567;32;40077;-82
2023/05/02 01:54:07;;;;;;;5.35;2.33;;;;;;;14.22;45.67;99853.31;7712112;32;38845;-79
2023/05/02 01:58:26;;;;;;;5.62;2.55;;;;;;;14.08;47.42;99851.28;7711141;32;36056;-79
2023/05/02 02:02:43;;;;;;;4.93;2.30;;;;;;;14.00;48.41;99851.13;7712383;32;38328;-79
2023/05/02 02:07:06;;;;;;;5.05;2.40;;;;;;;14.08;47.46;99845.00;7711586;32;40747;-80
2023/05/02 02:11:34;;;;;;;4.95;1.95;;;;;;;14.00;47.39;99834.69;7710941;32;38595;-80
2023/05/02 02:15:52;;;;;;;5.22;2.12;;;;;;;13.97;44.24;99829.78;7712046;32;37635;-80
2023/05/02 02:20:11;;;;;;;3.97;1.73;;;;;;;14.02;42.38;99833.28;7710584;32;39380;-80
2023/05/02 02:24:27;;;;;;;6.47;2.30;;;;;;;14.31;38.79;99831.53;7709808;32;40077;-79
2023/05/02 02:28:44;;;;;;;4.05;2.30;;;;;;;14.34;37.80;99840.00;7711971;32;38018;-79
2023/05/02 02:33:01;;;;;;;4.50;1.87;;;;;;;14.47;37.37;99835.72;7726048;32;37138;-80
2023/05/02 02:37:29;;;;;;;3.10;1.90;;;;;;;14.62;36.73;99835.47;7716025;32;39374;-81
2023/05/02 02:42:07;;;;;;;5.37;2.10;;;;;;;14.74;36.76;99826.81;7710681;32;40164;-79
2023/05/02 02:46:33;;;;;;;2.83;1.65;;;;;;;14.82;36.45;99823.38;7711663;32;38858;-80
2023/05/02 02:51:14;;;;;;;3.17;1.90;;;;;;;14.88;36.45;99815.88;7711783;32;36954;-80
2023/05/02 02:55:46;;;;;;;3.50;1.90;;;;;;;14.81;36.62;99824.53;7711640;32;40074;-80
2023/05/02 03:00:20;;;;;;;4.82;2.30;;;;;;;14.86;36.32;99829.09;7711536;32;40889;-80
2023/05/02 03:04:44;;;;;;;3.95;1.90;;;;;;;14.72;36.97;99828.22;7710987;32;38720;-79
2023/05/02 03:09:01;;;;;;;3.97;1.83;;;;;;;14.72;37.46;99820.81;7710213;32;37158;-80
2023/05/02 03:13:17;;;;;;;4.43;2.15;;;;;;;14.77;37.46;99828.94;7710175;32;39296;-79
2023/05/02 03:17:33;;;;;;;3.65;2.00;;;;;;;14.34;39.35;99839.19;7711290;32;39880;-80
2023/05/02 03:21:49;;;;;;;3.62;2.22;;;;;;;14.31;39.87;99834.28;7711100;32;37995;-80
2023/05/02 03:26:06;;;;;;;4.28;2.00;;;;;;;14.19;40.45;99834.72;7711327;32;37731;-80
2023/05/02 03:30:22;;;;;;;4.85;2.10;;;;;;;14.34;40.68;99830.97;7711221;32;38977;-79
2023/05/02 03:34:40;;;;;;;6.03;2.33;;;;;;;14.43;39.73;99831.91;7732864;32;40968;-79
2023/05/02 03:38:57;;;;;;;3.03;2.00;;;;;;;14.11;40.58;99838.09;7737873;32;37986;-80
2023/05/02 03:43:13;;;;;;;4.32;2.20;;;;;;;14.15;40.06;99842.72;7737766;32;37821;-79
2023/05/02 03:47:29;;;;;;;4.20;2.20;;;;;;;14.38;38.08;99843.75;7737591;32;40019;-80
2023/05/02 03:51:45;;;;;;;7.78;2.15;;;;;;;14.49;37.61;99843.63;7737584;32;39992;-80
2023/05/02 03:56:02;;;;;;;2.45;1.90;;;;;;;14.71;37.98;99849.37;7737447;32;37942;-80
2023/05/02 04:00:18;;;;;;;6.82;2.22;;;;;;;14.76;37.63;99845.72;7737517;32;37566;-80
2023/05/02 04:04:35;;;;;;;3.70;2.10;;;;;;;14.78;37.72;99854.47;7726434;32;39267;-80
2023/05/02 04:08:51;;;;;;;9.13;2.40;;;;;;;14.86;37.57;99845.56;7737454;32;39985;-80
2023/05/02 04:13:07;;;;;;;6.90;2.37;;;;;;;14.84;37.66;99845.03;7737150;32;38153;-80
2023/05/02 04:17:24;;;;;;;5.28;2.30;;;;;;;14.77;37.43;99858.34;7737190;32;37830;-79
2023/05/02 04:21:40;;;;;;;4.28;2.30;;;;;;;14.74;37.60;99856.19;7736979;32;39788;-80
2023/05/02 04:25:56;;;;;;;7.07;2.10;;;;;;;14.91;37.89;99859.19;7736892;32;39915;-79
2023/05/02 04:30:13;;;;;;;3.30;1.98;;;;;;;15.07;37.43;99857.00;7736782;32;38773;-80
2023/05/02 04:34:29;;;;;;;3.67;2.28;;;;;;;14.86;38.00;99861.22;7712386;32;37079;-79
2023/05/02 04:38:45;;;;;;;4.60;2.08;;;;;;;15.24;37.49;99861.94;7708760;32;39473;-80
2023/05/02 04:43:02;;;;;;;5.87;2.22;;;;;;;15.23;37.59;99865.81;7709622;32;40046;-80
2023/05/02 04:47:18;;;;;;;4.15;2.17;;;;;;;15.22;37.90;99861.44;7710566;32;37523;-81
2023/05/02 04:51:34;;;;;;;3.67;2.17;;;;;;;15.29;37.88;99869.28;7711827;32;37589;-79
2023/05/02 04:55:51;;;;;;;7.37;2.33;;;;;;;15.26;38.09;99862.44;7713102;32;40208;-82
2023/05/02 05:00:07;;;;;;;5.12;2.45;;;;;;;15.53;37.88;99863.66;7712953;32;39987;-79
2023/05/02 05:04:24;;;;;;;5.55;2.10;;;;;;;15.64;38.07;99859.56;7736260;32;37924;-80
2023/05/02 05:08:41;;;;;;;5.00;2.37;;;;;;;15.40;38.51;99870.72;7739645;32;36950;-79
2023/05/02 05:12:57;;;;;;;4.03;2.20;;;;;;;15.73;38.47;99870.69;7739723;32;39394;-80
2023/05/02 05:17:13;;;;;;;6.53;2.50;;;;;;;15.83;38.05;99872.44;7738237;32;39775;-80
2023/05/02 05:21:29;;;;;;;4.60;2.70;;;;;;;16.15;37.72;99880.59;7739223;32;37953;-81
2023/05/02 05:25:46;;;;;;;5.40;2.47;;;;;;;16.31;37.53;99883.00;7739460;32;38256;-80
2023/05/02 05:30:03;;;;;;;6.28;2.53;;;;;;;16.49;37.74;99886.78;7739409;32;39774;-80
2023/05/02 05:34:19;;;;;;;3.40;2.22;;;;;;;16.27;38.87;99888.31;7728287;32;40781;-79
2023/05/02 05:38:36;;;;;;;3.70;2.25;;;;;;;16.82;38.02;99884.63;7738043;32;37892;-80
2023/05/02 05:42:52;;;;;;;3.85;2.22;;;;;;;16.53;39.04;99885.81;7738068;32;36928;-80
2023/05/02 05:47:09;;;;;;;3.53;2.37;;;;;;;17.02;38.17;99882.53;7739114;32;39380;-80
2023/05/02 05:51:26;;;;;;;9.98;2.70;;;;;;;16.78;39.15;99891.06;7739111;32;40452;-79
2023/05/02 05:55:43;;;;;;;7.15;2.60;;;;;;;17.37;38.63;99891.06;7738972;32;38039;-79
2023/05/02 05:59:59;;;;;;;5.22;2.20;;;;;;;17.45;38.26;99887.53;7738251;32;37910;-80
2023/05/02 06:04:16;;;;;;;4.15;2.50;;;;;;;17.52;37.82;99887.88;7714882;32;39177;-70
2023/05/02 06:08:32;;;;;;;9.65;2.72;;;;;;;17.64;39.70;99903.84;7712137;32;40541;-82
2023/05/02 06:12:48;;;;;;;9.70;2.08;;;;;;;17.95;38.34;99901.09;7711858;32;37894;-70
2023/05/02 06:17:05;;;;;;;3.75;2.40;;;;;;;18.30;40.81;99903.97;7712011;32;37175;-69
2023/05/02 06:21:21;;;;;;;4.22;2.25;;;;;;;18.45;38.40;99902.69;7711889;32;39363;-69
2023/05/02 06:25:38;;;;;;;4.70;2.45;;;;;;;18.68;38.21;99903.41;7711808;32;41599;-70
2023/05/02 06:29:54;;;;;;;6.68;2.53;;;;;;;18.65;37.42;99897.72;7711825;32;37578;-69
2023/05/02 06:34:10;;;;;;;5.85;2.60;;;;;;;18.65;36.83;99898.50;7712454;32;37132;-80
2023/05/02 06:38:27;;;;;;;6.53;2.50;;;;;;;19.08;36.92;99914.31;7711822;32;40120;-85
2023/05/02 06:42:43;;;;;;;4.78;2.40;;;;;;;19.25;35.16;99912.69;7733358;32;39908;-79
2023/05/02 06:46:59;;;;;;;4.82;2.37;;;;;;;19.28;36.49;99909.25;7724956;32;37920;-73
2023/05/02 06:51:18;;;;;;;7.53;2.70;;;;;;;19.48;35.90;99916.84;7738594;32;38027;-81
2023/05/02 06:55:34;;;;;;;6.47;2.80;;;;;;;19.71;34.81;99916.63;7738471;32;39035;-80
2023/05/02 06:59:50;;;;;;;8.48;3.00;;;;;;;19.95;34.74;99915.28;7737434;32;40568;-76
2023/05/02 07:04:07;;;;;;;4.57;2.62;;;;;;;20.07;35.65;99912.63;7735784;32;38028;-82
2023/05/02 07:08:23;;;;;;;6.57;2.90;;;;;;;20.36;34.35;99914.59;7738299;32;37301;-81
2023/05/02 07:12:39;;;;;;;5.00;2.83;;;;;;;20.45;34.13;99920.06;7738405;32;39327;-79
2023/05/02 07:16:56;;;;;;;6.97;2.83;;;;;;;20.44;33.49;99912.94;7725733;32;40029;-80
2023/05/02 07:21:13;;;;;;;11.68;2.72;;;;;;;20.80;33.71;99909.59;7710983;32;37854;-80
2023/05/02 07:25:29;;;;;;;6.32;2.55;;;;;;;20.01;33.13;99911.19;7709937;32;37059;-79
2023/05/02 07:29:45;;;;;;;4.37;2.42;;;;;;;20.69;34.22;99913.12;7735064;32;39309;-81
2023/05/02 07:34:01;;;;;;;5.07;2.78;;;;;;;20.75;34.21;99920.09;7735194;32;39993;-80
2023/05/02 07:38:18;;;;;;;5.28;2.72;;;;;;;20.92;33.03;99919.13;7731577;32;38816;-80
2023/05/02 07:42:35;;;;;;;5.68;2.97;;;;;;;20.99;33.03;99917.44;7731019;32;36802;-79
2023/05/02 07:46:52;;;;;;;4.90;3.00;;;;;;;19.97;35.01;99924.06;7729986;32;40054;-79
2023/05/02 07:51:12;;;;;;;6.25;2.95;;;;;;;20.27;33.94;99922.13;7731459;32;39636;-79
2023/05/02 07:55:30;;;;;;;8.82;2.67;;;;;;;20.82;33.99;99917.59;7733019;32;38474;-80
2023/05/02 07:59:46;;;;;;;9.18;2.80;;;;;;;20.58;33.73;99919.03;7737585;32;37593;-80
2023/05/02 08:04:06;;;;;;;6.07;2.90;;;;;;;20.18;34.79;99915.81;7732571;32;39384;-79
2023/05/02 08:08:22;;;;;;;15.02;3.60;;;;;;;20.77;34.11;99909.47;7709719;32;39763;-76
2023/05/02 08:12:40;;;;;;;5.45;2.80;;;;;;;20.72;34.42;99917.97;7721579;32;36373;-83
2023/05/02 08:16:56;;;;;;;8.75;2.85;;;;;;;20.93;33.84;99899.38;7730414;32;37683;-67
2023/05/02 08:21:13;;;;;;;4.90;2.60;;;;;;;21.03;33.30;99920.34;7709525;32;40142;-67
2023/05/02 08:25:29;;;;;;;5.47;2.70;;;;;;;20.86;34.60;99918.53;7710226;32;39873;-67
2023/05/02 08:29:45;;;;;;;6.78;2.83;;;;;;;21.42;33.39;99920.13;7714043;32;37837;-67
2023/05/02 08:34:01;;;;;;;6.28;2.53;;;;;;;21.48;34.57;99927.13;7709937;32;37860;-67
2023/05/02 08:38:18;;;;;;;4.05;2.65;;;;;;;21.53;33.52;99929.69;7710012;32;40131;-67
2023/05/02 08:42:34;;;;;;;5.10;2.55;;;;;;;21.69;33.23;99936.19;7709746;32;39984;-79
2023/05/02 08:46:51;;;;;;;8.00;3.10;;;;;;;22.16;34.39;99923.88;7727421;32;38106;-79
2023/05/02 08:51:14;;;;;;;8.82;3.60;;;;;;;22.50;33.38;99928.19;7711353;32;37803;-80
2023/05/02 08:55:31;;;;;;;4.93;2.67;;;;;;;22.78;33.79;99926.63;7735440;32;39924;-78
2023/05/02 08:59:48;;;;;;;15.23;3.05;;;;;;;23.11;33.39;99918.13;7729219;32;40911;-78
2023/05/02 09:04:05;;;;;;;4.82;2.70;;;;;;;23.04;33.97;99923.44;7724356;32;37957;-78
2023/05/02 09:08:23;;;;;;;5.95;2.55;;;;;;;23.06;33.33;99923.94;7709479;32;37011;-79
2023/05/02 09:12:39;;;;;;;6.37;3.08;;;;;;;23.33;33.43;99916.72;7717656;32;39344;-78
2023/05/02 09:17:02;;;;;;;7.45;3.12;;;;;;;23.09;34.03;99914.88;7716965;32;40832;-80
2023/05/02 09:21:24;;;;;;;6.60;2.72;;;;;;;22.96;33.58;99927.19;7708566;32;38012;-79
2023/05/02 09:25:40;;;;;;;7.68;2.92;;;;;;;22.86;34.10;99918.16;7729129;32;37652;-79
2023/05/02 09:30:29;;;;;;;8.98;3.15;;;;;;;22.91;32.94;99916.31;7712620;32;39380;-80
2023/05/02 09:35:04;;;;;;;5.75;2.72;;;;;;;22.95;32.76;99909.69;7703307;32;40816;-78
2023/05/02 09:39:27;;;;;;;5.12;2.67;;;;;;;23.00;31.99;99916.97;7719793;32;38486;-79
2023/05/02 09:43:53;;;;;;;;;;;;;;;22.93;31.92;99911.19;7727085;32;38011;-81
2023/05/02 09:48:10;;;;;;;8.07;2.60;;;;;;;23.00;32.61;99895.53;7712525;32;39687;-80
2023/05/02 09:52:27;;;;;;;5.45;2.65;;;;;;;22.76;32.47;99906.72;7725218;32;40801;-79
2023/05/02 09:56:55;;;;;;;4.35;2.65;;;;;;;22.88;30.54;99901.13;7724803;32;37950;-78
2023/05/02 10:01:18;;;;;;;4.25;2.37;;;;;;;22.87;30.62;99897.56;7719037;32;37178;-79
2023/05/02 10:05:39;;;;;;;5.90;2.35;;;;;;;23.27;29.83;99897.88;7719236;32;40180;-79
2023/05/02 10:09:57;;;;;;;5.47;2.35;;;;;;;23.29;31.62;99890.81;7726645;32;39951;-79
2023/05/02 10:14:15;;;;;;;4.15;2.62;;;;;;;22.66;31.02;99894.13;7733835;32;40000;-79
2023/05/02 10:18:43;;;;;;;6.03;2.67;;;;;;;23.17;30.34;99886.09;7736507;32;37089;-80
2023/05/02 10:23:03;;;;;;;5.78;2.30;;;;;;;22.77;30.29;99900.81;7725010;32;39387;-79
2023/05/02 10:27:20;;;;;;;6.35;2.70;;;;;;;22.63;29.35;99889.28;7711864;32;39958;-80
2023/05/02 10:31:38;;;;;;;12.88;2.90;;;;;;;22.66;31.26;99897.72;7711446;32;37615;-78
2023/05/02 10:35:54;;;;;;;6.20;2.60;;;;;;;23.07;30.24;99889.41;7730406;32;36151;-79
2023/05/02 10:40:12;;;;;;;6.87;2.50;;;;;;;22.90;29.74;99884.91;7723168;32;39332;-82
2023/05/02 10:44:36;;;;;;;12.00;2.97;;;;;;;23.28;29.52;99880.03;7722180;32;40681;-80
2023/05/02 10:49:03;;;;;;;7.35;2.45;;;;;;;23.71;31.77;99884.75;7720205;32;37459;-81
2023/05/02 10:53:32;;;;;;;9.07;2.92;;;;;;;23.66;32.47;99881.44;7733260;32;37114;-81
2023/05/02 10:58:00;;;;;;;6.20;3.00;;;;;;;23.93;31.92;99885.34;7713212;32;39282;-83
2023/05/02 11:02:22;;;;;;;6.28;2.80;;;;;;;23.77;31.89;99883.34;7712332;32;40548;-83
2023/05/02 11:07:00;;;;;;;4.75;2.20;;;;;;;23.88;31.29;99882.81;7732102;32;38016;-83
2023/05/02 11:11:42;;;;;;;6.12;2.97;;;;;;;24.08;31.73;99875.38;7735966;32;37828;-82
2023/05/02 11:15:59;;;;;;;5.80;2.53;;;;;;;24.21;31.39;99871.28;7711739;32;39457;-83
2023/05/02 11:20:18;;;;;;;10.45;2.65;;;;;;;24.16;28.99;99863.22;7735251;32;40017;-79
2023/05/02 11:24:41;;;;;;;4.93;2.75;;;;;;;24.53;28.91;99863.66;7727265;32;38155;-84
2023/05/02 11:28:57;;;;;;;6.97;2.53;;;;;;;25.38;32.45;99857.44;7737678;32;37129;-81
2023/05/02 11:33:16;;;;;;;6.53;2.50;;;;;;;25.54;30.71;99853.75;7723806;32;39361;-78
2023/05/02 11:37:32;;;;;;;4.28;2.65;;;;;;;25.88;28.48;99859.50;7719325;32;37620;-79
2023/05/02 11:41:50;;;;;;;5.95;2.40;;;;;;;26.22;29.07;99852.09;7736314;32;38875;-80
2023/05/02 11:46:06;;;;;;;6.87;2.33;;;;;;;25.97;28.87;99854.50;7737335;32;37678;-80
2023/05/02 11:50:24;;;;;;;3.10;2.28;;;;;;;25.08;28.90;99860.84;7737275;32;40102;-84
2023/05/02 11:54:40;;;;;;;4.00;2.62;;;;;;;25.71;28.19;99864.41;7722545;32;39678;-71
2023/05/02 11:59:03;;;;;;;3.62;2.17;;;;;;;25.47;29.34;99855.25;7735403;32;38774;-81
2023/05/02 12:03:31;;;;;;;5.35;2.28;;;;;;;25.94;28.94;99849.63;7736979;32;37084;-82
2023/05/02 12:07:48;;;;;;;4.65;2.37;;;;;;;26.68;28.81;99840.78;7732737;32;39486;-82
2023/05/02 12:12:04;;;;;;;6.05;2.30;;;;;;;26.73;28.25;99850.81;7725109;32;40531;-82
2023/05/02 12:16:21;;;;;;;4.80;2.42;;;;;;;26.78;28.17;99840.09;7717967;32;38748;-82
2023/05/02 12:20:38;;;;;;;4.03;2.08;;;;;;;26.84;27.50;99840.56;7725329;32;37851;-72
2023/05/02 12:24:54;;;;;;;7.32;2.40;;;;;;;26.89;28.26;99826.25;7736640;32;39777;-78
2023/05/02 12:29:11;;;;;;;6.05;2.35;;;;;;;26.49;25.74;99836.13;7728223;32;40011;-79
2023/05/02 12:33:27;;;;;;;5.60;2.90;;;;;;;25.42;25.99;99847.19;7735581;32;38041;-77
2023/05/02 12:37:44;;;;;;;7.05;2.60;;;;;;;25.20;26.62;99845.94;7736828;32;37131;-78
2023/05/02 12:42:16;;;;;;;5.80;2.22;;;;;;;25.60;26.10;99850.28;7736789;32;38416;-78
2023/05/02 12:46:32;;;;;;;6.05;2.35;;;;;;;25.62;26.30;99841.53;7736629;32;39782;-77
2023/05/02 12:50:50;;;;;;;11.32;2.50;;;;;;;25.92;26.40;99836.03;7736423;32;38813;-78
2023/05/02 12:55:35;;;;;;;7.93;2.60;;;;;;;25.75;26.58;99826.22;7736419;32;37058;-70
2023/05/02 12:59:55;;;;;;;5.53;2.40;;;;;;;25.76;27.44;99825.00;7726648;32;40039;-78
2023/05/02 13:04:12;;;;;;;6.25;2.35;;;;;;;25.69;27.29;99827.69;7734989;32;39995;-78
2023/05/02 13:08:28;;;;;;;8.13;2.33;;;;;;;25.83;27.26;99821.53;7738393;32;37564;-78
2023/05/02 13:12:45;;;;;;;4.25;2.30;;;;;;;25.62;27.24;99817.19;7739762;32;37098;-78
2023/05/02 13:17:02;;;;;;;4.15;2.30;;;;;;;25.54;28.30;99809.09;7739663;32;40237;-78
2023/05/02 13:21:19;;;;;;;5.57;2.42;;;;;;;25.47;28.24;99813.38;7728811;32;339262;-78
2023/05/02 13:25:35;;;;;;;9.20;2.75;;;;;;;25.29;28.46;99817.84;7739483;32;37986;-78
2023/05/02 13:29:51;;;;;;;6.60;2.40;;;;;;;24.61;29.76;99825.66;7739105;32;36980;-79
2023/05/02 13:34:08;;;;;;;6.53;2.60;;;;;;;24.65;29.98;99817.37;7739386;32;40104;-78
2023/05/02 13:38:24;;;;;;;6.20;2.80;;;;;;;24.97;31.01;99812.41;7739303;32;39917;-78
2023/05/02 13:42:41;;;;;;;8.18;2.83;;;;;;;25.17;30.77;99810.41;7739412;32;38705;-79
2023/05/02 13:46:57;;;;;;;3.60;2.22;;;;;;;25.21;30.90;99807.69;7739341;32;36972;-79
2023/05/02 13:51:13;;;;;;;11.73;2.67;;;;;;;25.25;30.92;99800.19;7725911;32;39313;-78
2023/05/02 13:55:30;;;;;;;8.10;2.62;;;;;;;24.70;31.01;99800.34;7729257;32;40062;-78
2023/05/02 13:59:46;;;;;;;4.97;2.70;;;;;;;25.08;31.10;99805.06;7737262;32;39306;-78
2023/05/02 14:04:07;;;;;;;9.07;2.50;;;;;;;24.92;30.78;99801.56;7724635;32;37623;-78
2023/05/02 14:08:24;;;;;;;3.85;2.60;;;;;;;24.70;31.05;99798.34;7710736;32;39891;-79
2023/05/02 14:12:40;;;;;;;6.28;2.90;;;;;;;24.78;30.70;99790.13;7711132;32;40629;-78
2023/05/02 14:16:58;;;;;;;5.68;2.60;;;;;;;24.50;30.71;99791.12;7736205;32;38087;-78
2023/05/02 14:21:15;;;;;;;3.83;2.20;;;;;;;24.97;30.52;99792.09;7737451;32;35948;-79
2023/05/02 14:25:32;;;;;;;12.13;2.40;;;;;;;24.90;29.79;99795.56;7736897;32;39017;-78
2023/05/02 14:29:48;;;;;;;5.22;2.22;;;;;;;24.47;30.43;99784.31;7738217;32;40520;-78
2023/05/02 14:34:05;;;;;;;5.95;2.70;;;;;;;24.77;30.59;99789.34;7738066;32;38787;-78
2023/05/02 14:38:23;;;;;;;6.57;2.55;;;;;;;24.67;31.96;99787.94;7737122;32;36702;-79
2023/05/02 14:42:40;;;;;;;10.85;2.37;;;;;;;24.59;31.66;99790.94;7737591;32;39357;-79
2023/05/02 14:46:57;;;;;;;4.05;2.58;;;;;;;24.19;31.30;99793.66;7738489;32;40277;-79
2023/05/02 14:51:14;;;;;;;7.45;2.17;;;;;;;24.12;30.39;99801.84;7736622;32;37858;-78
2023/05/02 14:55:34;;;;;;;7.95;2.33;;;;;;;24.12;29.26;99804.66;7758845;32;37605;-79
2023/05/02 14:59:51;;;;;;;5.10;2.60;;;;;;;24.04;29.60;99813.19;7765045;32;40207;-79
2023/05/02 15:04:07;;;;;;;7.72;2.80;;;;;;;23.86;30.70;99807.22;7761909;32;40790;-79
2023/05/02 15:08:25;;;;;;;9.07;2.67;;;;;;;23.33;33.13;99836.06;7738096;32;38676;-79
2023/05/02 15:12:42;;;;;;;5.25;2.20;;;;;;;22.97;33.78;99846.19;7737668;32;36742;-79
2023/05/02 15:16:58;;;;;;;4.30;2.60;;;;;;;22.72;35.34;99850.25;7737438;32;39367;-78
2023/05/02 15:21:15;;;;;;;4.78;2.08;;;;;;;22.23;35.24;99823.34;7737319;32;39943;-79
2023/05/02 15:25:32;;;;;;;3.45;1.90;;;;;;;22.41;32.98;99802.53;7736332;32;37962;-77
2023/05/02 15:29:48;;;;;;;5.93;2.00;;;;;;;22.67;32.11;99798.50;7737554;32;37040;-78
2023/05/02 15:34:05;;;;;;;12.75;3.78;;;;;;;22.72;31.50;99794.69;7737106;32;39343;-79
2023/05/02 15:38:21;;;;;;;10.13;2.78;;;;;;;22.69;34.43;99807.28;7736333;32;41328;-79
2023/05/02 15:42:37;;;;;;;3.75;2.22;;;;;;;22.74;34.98;99809.03;7735811;32;37838;-79
2023/05/02 15:46:54;;;;;;;7.07;2.35;;;;;;;22.68;34.46;99795.37;7737261;32;37156;-78
2023/05/02 15:51:12;;;;;;;5.37;2.65;;;;;;;22.73;35.79;99799.06;7737102;32;39437;-78
2023/05/02 15:55:29;;;;;;;4.03;2.20;;;;;;;22.51;38.00;99801.22;7757971;32;39923;-78
2023/05/02 15:59:46;;;;;;;9.52;2.87;;;;;;;22.41;39.01;99802.53;7756995;32;37944;-78
2023/05/02 16:04:04;;;;;;;5.37;2.42;;;;;;;22.33;39.57;99802.66;7735844;32;37339;-78
2023/05/02 16:08:21;;;;;;;6.93;2.78;;;;;;;22.29;39.44;99800.56;7733755;32;40278;-79
2023/05/02 16:12:37;;;;;;;5.10;2.55;;;;;;;22.30;39.07;99795.81;7734357;32;40793;-79
2023/05/02 16:16:54;;;;;;;8.25;2.90;;;;;;;22.10;39.44;99798.38;7733751;32;37828;-78
2023/05/02 16:21:11;;;;;;;3.75;2.67;;;;;;;22.00;40.50;99798.06;7736035;32;37011;-79
2023/05/02 16:25:27;;;;;;;9.32;3.28;;;;;;;21.80;41.75;99808.13;7736260;32;39278;-79
2023/05/02 16:29:44;;;;;;;6.78;3.45;;;;;;;21.39;44.36;99819.06;7736837;32;39968;-78
2023/05/02 16:34:01;;;;;;;6.32;3.22;;;;;;;21.42;44.93;99817.53;7736231;32;38454;-78
2023/05/02 16:38:18;;;;;;;7.45;3.45;;;;;;;21.43;45.17;99810.84;7736249;32;38047;-79
2023/05/02 16:42:34;;;;;;;5.95;2.58;;;;;;;21.29;45.73;99814.75;7737502;32;39405;-78
2023/05/02 16:46:51;;;;;;;5.35;2.90;;;;;;;21.48;44.88;99810.66;7739494;32;39685;-78
2023/05/02 16:51:07;;;;;;;9.50;3.12;;;;;;;21.38;44.73;99804.34;7739180;32;37862;-78
2023/05/02 16:55:24;;;;;;;6.15;2.50;;;;;;;21.41;43.67;99802.06;7759632;32;37121;-79
2023/05/02 16:59:40;;;;;;;8.18;2.40;;;;;;;21.40;42.86;99809.56;7766407;32;39144;-79
2023/05/02 17:03:56;;;;;;;7.25;2.75;;;;;;;21.39;41.45;99811.53;7761092;32;39891;-78
2023/05/02 17:08:13;;;;;;;7.70;3.40;;;;;;;21.27;41.89;99808.75;7738992;32;38867;-78
2023/05/02 17:12:30;;;;;;;6.78;3.47;;;;;;;21.01;45.79;99809.81;7739092;32;37136;-79
2023/05/02 17:16:46;;;;;;;6.35;4.00;;;;;;;20.69;48.01;99830.00;7739492;32;39924;-78
2023/05/02 17:21:03;;;;;;;9.00;3.85;;;;;;;20.47;50.80;99853.28;7738514;32;40017;-78
2023/05/02 17:25:19;;;;;;;7.57;4.05;;;;;;;20.29;48.98;99849.84;7738562;32;37993;-79
2023/05/02 17:29:36;;;;;;;9.52;4.53;;;;;;;20.39;46.91;99849.44;7737717;32;37012;-79
2023/05/02 17:33:52;;;;;;;15.43;4.22;;;;;;;20.42;48.26;99870.91;7738754;32;39835;-79
2023/05/02 17:38:08;;;;;;;10.18;4.00;;;;;;;20.34;48.55;99863.47;7737631;32;40162;-78
2023/05/02 17:42:25;;;;;;;7.50;3.70;;;;;;;20.26;48.53;99884.53;7738648;32;38436;-79
2023/05/02 17:46:41;;;;;;;7.37;4.00;;;;;;;20.24;46.39;99884.84;7738696;32;37774;-70
2023/05/02 17:51:01;;;;;;;6.80;4.07;;;;;;;19.96;48.45;99906.66;7738452;32;40165;-78
2023/05/02 17:55:17;;;;;;;8.32;3.92;;;;;;;19.84;47.98;99901.81;7738487;32;40808;-78
2023/05/02 17:59:37;;;;;;;6.62;4.37;;;;;;;19.88;48.63;99913.81;7737623;32;37970;-78
2023/05/02 18:03:54;;;;;;;9.75;4.30;;;;;;;19.95;48.78;99905.03;7730830;32;37159;-78
2023/05/02 18:08:10;;;;;;;8.07;4.45;;;;;;;19.39;51.01;99918.84;7712388;32;39108;-78
2023/05/02 18:12:27;;;;;;;7.30;4.40;;;;;;;19.30;51.83;99945.69;7712331;32;40529;-77
2023/05/02 18:16:47;;;;;;;11.15;4.87;;;;;;;19.61;51.56;99947.41;7712106;32;38107;-78
2023/05/02 18:21:04;;;;;;;13.62;5.45;;;;;;;18.68;54.98;99958.62;7730206;32;37869;-76
2023/05/02 18:25:21;;;;;;;10.40;5.53;;;;;;;18.68;56.05;99966.91;7732821;32;39432;-78
2023/05/02 18:29:37;;;;;;;9.50;5.03;;;;;;;18.60;55.73;99964.13;7734109;32;39916;-80
2023/05/02 18:33:53;;;;;;;9.23;5.15;;;;;;;18.76;55.58;99976.31;7735593;32;38629;-80
2023/05/02 18:38:10;;;;;;;10.02;5.05;;;;;;;18.77;55.08;99973.25;7734509;32;37213;-80
2023/05/02 18:42:27;;;;;;;8.50;5.15;;;;;;;18.61;55.90;99969.31;7733352;32;39850;-79
2023/05/02 18:46:43;;;;;;;10.60;6.22;;;;;;;18.51;56.17;99969.63;7733018;32;40872;-79
2023/05/02 18:51:00;;;;;;;12.63;6.60;;;;;;;18.54;55.79;99966.19;7735162;32;38581;-79
2023/05/02 18:55:17;;;;;;;8.63;5.53;;;;;;;18.62;55.43;99973.69;7735876;32;36885;-78
2023/05/02 18:59:33;;;;;;;12.15;5.43;;;;;;;18.73;55.40;99974.19;7712980;32;39635;-78
2023/05/02 19:03:51;;;;;;;12.30;5.93;;;;;;;18.58;56.46;99972.72;7736130;32;40903;-78
2023/05/02 19:08:08;;;;;;;12.35;6.18;;;;;;;17.44;60.30;99985.13;7732677;32;36580;-78
2023/05/02 19:12:24;;;;;;;11.10;5.53;;;;;;;16.94;62.38;100001.72;7735776;32;37471;-79
2023/05/02 19:16:40;;;;;;;9.77;5.82;;;;;;;17.80;58.97;100000.78;7734671;32;39430;-78
2023/05/02 19:20:57;;;;;;;11.63;5.75;;;;;;;17.18;60.99;100007.78;7735011;32;40922;-77
2023/05/02 19:25:14;;;;;;;11.32;5.78;;;;;;;17.33;60.39;100012.09;7736309;32;37960;-78
2023/05/02 19:29:30;;;;;;;9.55;5.72;;;;;;;17.03;61.20;100019.94;7736787;32;37401;-79
2023/05/02 19:33:50;;;;;;;9.35;5.35;;;;;;;17.43;60.08;100033.09;7736396;32;38204;-78
2023/05/02 19:38:07;;;;;;;9.68;5.65;;;;;;;17.37;60.06;100035.16;7735184;32;41021;-79
2023/05/02 19:42:23;;;;;;;11.50;5.60;;;;;;;17.13;60.88;100032.69;7728528;32;38026;-79
2023/05/02 19:46:39;;;;;;;8.52;5.82;;;;;;;16.77;62.18;100033.41;7735334;32;36364;-77
2023/05/02 19:50:56;;;;;;;8.95;5.47;;;;;;;16.89;61.60;100030.97;7733574;32;39407;-79
2023/05/02 19:55:12;;;;;;;10.65;5.78;;;;;;;17.21;60.47;100034.69;7732786;32;40017;-78
2023/05/02 19:59:29;;;;;;;10.00;5.97;;;;;;;17.20;60.64;100041.31;7708744;32;38540;-79
2023/05/02 20:03:45;;;;;;;8.65;4.70;;;;;;;16.78;62.01;100053.50;7714912;32;37947;-79
2023/05/02 20:08:03;;;;;;;6.68;4.25;;;;;;;16.86;60.82;100075.63;7733093;32;39145;-79
2023/05/02 20:12:19;;;;;;;10.30;5.57;;;;;;;16.92;60.31;100064.53;7747227;32;40831;-79